sensor_id;sensor_type;location;lat;lon;timestamp;pressure;altitude;pressure_sealevel;temperature;humidity
71774;BME280;59607;52.130;5.430;2024-02-14T00:00:15;101358.56;;;7.90;100.00
71774;BME280;59607;52.130;5.430;2024-02-14T00:02:49;101348.00;;;7.92;100.00
71774;BME280;59607;52.130;5.430;2024-02-14T00:05:16;101342.53;;;7.95;100.00
71774;BME280;59607;52.130;5.430;2024-02-14T00:07:46;101344.31;;;7.94;100.00
71774;BME280;59607;52.130;5.430;2024-02-14T00:10:12;101352.00;;;7.96;100.00
71774;BME280;59607;52.130;5.430;2024-02-14T00:12:39;101347.47;;;7.98;100.00
71774;BME280;59607;52.130;5.430;2024-02-14T00:15:08;101343.06;;;7.98;100.00
71774;BME280;59607;52.130;5.430;2024-02-14T00:17:40;101347.47;;;7.98;100.00
71774;BME280;59607;52.130;5.430;2024-02-14T00:20:10;101343.75;;;8.00;100.00
71774;BME280;59607;52.130;5.430;2024-02-14T00:22:39;101345.41;;;8.01;100.00
71774;BME280;59607;52.130;5.430;2024-02-14T00:25:07;101344.34;;;8.04;100.00
71774;BME280;59607;52.130;5.430;2024-02-14T00:27:35;101338.13;;;8.05;100.00
71774;BME280;59607;52.130;5.430;2024-02-14T00:30:05;101332.78;;;8.07;100.00
71774;BME280;59607;52.130;5.430;2024-02-14T00:32:32;101331.69;;;8.09;100.00
71774;BME280;59607;52.130;5.430;2024-02-14T00:35:02;101323.72;;;8.11;100.00
71774;BME280;59607;52.130;5.430;2024-02-14T00:37:33;101328.81;;;8.12;100.00
71774;BME280;59607;52.130;5.430;2024-02-14T00:40:10;101319.03;;;8.14;100.00
71774;BME280;59607;52.130;5.430;2024-02-14T00:42:37;101310.13;;;8.17;100.00
71774;BME280;59607;52.130;5.430;2024-02-14T00:45:12;101311.63;;;8.20;100.00
71774;BME280;59607;52.130;5.430;2024-02-14T00:47:40;101313.28;;;8.21;100.00
71774;BME280;59607;52.130;5.430;2024-02-14T00:50:10;101310.66;;;8.21;100.00
71774;BME280;59607;52.130;5.430;2024-02-14T00:52:37;101313.84;;;8.24;100.00
71774;BME280;59607;52.130;5.430;2024-02-14T00:55:04;101314.53;;;8.26;100.00
71774;BME280;59607;52.130;5.430;2024-02-14T00:57:32;101315.91;;;8.31;100.00
71774;BME280;59607;52.130;5.430;2024-02-14T01:00:02;101302.84;;;8.31;100.00
71774;BME280;59607;52.130;5.430;2024-02-14T01:02:33;101302.56;;;8.34;100.00
71774;BME280;59607;52.130;5.430;2024-02-14T01:05:20;101312.78;;;8.37;100.00
71774;BME280;59607;52.130;5.430;2024-02-14T01:07:46;101304.94;;;8.37;100.00
71774;BME280;59607;52.130;5.430;2024-02-14T01:10:13;101307.28;;;8.40;100.00
71774;BME280;59607;52.130;5.430;2024-02-14T01:12:39;101308.91;;;8.41;100.00
71774;BME280;59607;52.130;5.430;2024-02-14T01:15:12;101313.16;;;8.42;100.00
71774;BME280;59607;52.130;5.430;2024-02-14T01:17:39;101307.00;;;8.43;100.00
71774;BME280;59607;52.130;5.430;2024-02-14T01:20:13;101302.56;;;8.44;100.00
71774;BME280;59607;52.130;5.430;2024-02-14T01:22:39;101312.09;;;8.45;100.00
71774;BME280;59607;52.130;5.430;2024-02-14T01:25:09;101304.09;;;8.46;100.00
71774;BME280;59607;52.130;5.430;2024-02-14T01:27:41;101296.13;;;8.48;100.00
71774;BME280;59607;52.130;5.430;2024-02-14T01:30:14;101308.06;;;8.50;100.00
71774;BME280;59607;52.130;5.430;2024-02-14T01:32:45;101305.19;;;8.54;100.00
71774;BME280;59607;52.130;5.430;2024-02-14T01:35:12;101301.66;;;8.55;100.00
71774;BME280;59607;52.130;5.430;2024-02-14T01:37:39;101301.53;;;8.56;100.00
71774;BME280;59607;52.130;5.430;2024-02-14T01:40:09;101288.31;;;8.58;100.00
71774;BME280;59607;52.130;5.430;2024-02-14T01:42:35;101296.97;;;8.58;100.00
71774;BME280;59607;52.130;5.430;2024-02-14T01:45:07;101295.88;;;8.61;100.00
71774;BME280;59607;52.130;5.430;2024-02-14T01:47:34;101299.28;;;8.61;100.00
71774;BME280;59607;52.130;5.430;2024-02-14T01:50:01;101299.28;;;8.61;100.00
71774;BME280;59607;52.130;5.430;2024-02-14T01:52:34;101298.34;;;8.62;100.00
71774;BME280;59607;52.130;5.430;2024-02-14T01:55:13;101303.16;;;8.67;100.00
71774;BME280;59607;52.130;5.430;2024-02-14T01:57:39;101294.47;;;8.67;100.00
71774;BME280;59607;52.130;5.430;2024-02-14T02:00:10;101296.00;;;8.69;100.00
71774;BME280;59607;52.130;5.430;2024-02-14T02:02:42;101299.28;;;8.71;100.00
71774;BME280;59607;52.130;5.430;2024-02-14T02:05:10;101308.81;;;8.72;100.00
71774;BME280;59607;52.130;5.430;2024-02-14T02:07:40;101305.91;;;8.75;100.00
71774;BME280;59607;52.130;5.430;2024-02-14T02:10:11;101305.63;;;8.79;100.00
71774;BME280;59607;52.130;5.430;2024-02-14T02:12:43;101297.78;;;8.79;100.00
71774;BME280;59607;52.130;5.430;2024-02-14T02:15:10;101289.66;;;8.82;100.00
71774;BME280;59607;52.130;5.430;2024-02-14T02:17:41;101300.97;;;8.82;100.00
71774;BME280;59607;52.130;5.430;2024-02-14T02:20:08;101308.66;;;8.84;100.00
71774;BME280;59607;52.130;5.430;2024-02-14T02:22:35;101307.56;;;8.86;100.00
71774;BME280;59607;52.130;5.430;2024-02-14T02:25:06;101303.16;;;8.87;100.00
71774;BME280;59607;52.130;5.430;2024-02-14T02:27:40;101302.19;;;8.88;100.00
71774;BME280;59607;52.130;5.430;2024-02-14T02:30:10;101304.66;;;8.89;100.00
71774;BME280;59607;52.130;5.430;2024-02-14T02:32:39;101310.56;;;8.92;100.00
71774;BME280;59607;52.130;5.430;2024-02-14T02:35:06;101307.81;;;8.93;100.00
71774;BME280;59607;52.130;5.430;2024-02-14T02:37:47;101306.84;;;8.94;100.00
71774;BME280;59607;52.130;5.430;2024-02-14T02:40:23;101308.38;;;8.97;100.00
71774;BME280;59607;52.130;5.430;2024-02-14T02:42:50;101305.63;;;8.98;100.00
71774;BME280;59607;52.130;5.430;2024-02-14T02:45:22;101317.72;;;8.99;100.00
71774;BME280;59607;52.130;5.430;2024-02-14T02:47:49;101302.72;;;9.01;100.00
71774;BME280;59607;52.130;5.430;2024-02-14T02:50:31;101316.59;;;9.02;100.00
71774;BME280;59607;52.130;5.430;2024-02-14T02:52:58;101308.75;;;9.02;100.00
71774;BME280;59607;52.130;5.430;2024-02-14T02:55:30;101323.38;;;9.05;100.00
71774;BME280;59607;52.130;5.430;2024-02-14T02:57:56;101310.44;;;9.03;100.00
71774;BME280;59607;52.130;5.430;2024-02-14T03:00:39;101303.38;;;9.04;100.00
71774;BME280;59607;52.130;5.430;2024-02-14T03:03:08;101316.19;;;9.07;100.00
71774;BME280;59607;52.130;5.430;2024-02-14T03:05:35;101316.19;;;9.07;100.00
71774;BME280;59607;52.130;5.430;2024-02-14T03:08:02;101320.47;;;9.08;100.00
71774;BME280;59607;52.130;5.430;2024-02-14T03:10:29;101315.22;;;9.08;100.00
71774;BME280;59607;52.130;5.430;2024-02-14T03:13:05;101320.19;;;9.11;100.00
71774;BME280;59607;52.130;5.430;2024-02-14T03:15:31;101311.34;;;9.12;100.00
71774;BME280;59607;52.130;5.430;2024-02-14T03:18:03;101316.44;;;9.13;100.00
71774;BME280;59607;52.130;5.430;2024-02-14T03:20:37;101322.50;;;9.14;100.00
71774;BME280;59607;52.130;5.430;2024-02-14T03:23:08;101318.13;;;9.15;100.00
71774;BME280;59607;52.130;5.430;2024-02-14T03:25:41;101321.25;;;9.18;100.00
71774;BME280;59607;52.130;5.430;2024-02-14T03:28:19;101333.38;;;9.19;100.00
71774;BME280;59607;52.130;5.430;2024-02-14T03:30:58;101322.63;;;9.22;100.00
71774;BME280;59607;52.130;5.430;2024-02-14T03:33:42;101319.03;;;9.23;100.00
71774;BME280;59607;52.130;5.430;2024-02-14T03:36:12;101332.81;;;9.25;100.00
71774;BME280;59607;52.130;5.430;2024-02-14T03:38:38;101335.16;;;9.29;100.00
71774;BME280;59607;52.130;5.430;2024-02-14T03:41:07;101344.66;;;9.30;100.00
71774;BME280;59607;52.130;5.430;2024-02-14T03:43:36;101340.94;;;9.32;100.00
71774;BME280;59607;52.130;5.430;2024-02-14T03:46:03;101332.81;;;9.35;100.00
71774;BME280;59607;52.130;5.430;2024-02-14T03:48:44;101338.72;;;9.37;100.00
71774;BME280;59607;52.130;5.430;2024-02-14T03:51:25;101337.59;;;9.40;100.00
71774;BME280;59607;52.130;5.430;2024-02-14T03:53:52;101332.22;;;9.42;100.00
71774;BME280;59607;52.130;5.430;2024-02-14T03:56:24;101339.09;;;9.43;100.00
71774;BME280;59607;52.130;5.430;2024-02-14T03:58:52;101335.38;;;9.45;100.00
71774;BME280;59607;52.130;5.430;2024-02-14T04:01:29;101336.88;;;9.48;100.00
71774;BME280;59607;52.130;5.430;2024-02-14T04:04:03;101353.28;;;9.50;100.00
71774;BME280;59607;52.130;5.430;2024-02-14T04:06:30;101356.59;;;9.52;100.00
71774;BME280;59607;52.130;5.430;2024-02-14T04:08:59;101353.84;;;9.54;100.00
71774;BME280;59607;52.130;5.430;2024-02-14T04:11:29;101345.00;;;9.55;100.00
71774;BME280;59607;52.130;5.430;2024-02-14T04:13:58;101356.16;;;9.57;100.00
71774;BME280;59607;52.130;5.430;2024-02-14T04:16:31;101349.94;;;9.58;100.00
71774;BME280;59607;52.130;5.430;2024-02-14T04:18:57;101353.91;;;9.62;100.00
71774;BME280;59607;52.130;5.430;2024-02-14T04:21:24;101356.41;;;9.63;100.00
71774;BME280;59607;52.130;5.430;2024-02-14T04:23:51;101352.81;;;9.65;100.00
71774;BME280;59607;52.130;5.430;2024-02-14T04:26:22;101362.19;;;9.67;100.00
71774;BME280;59607;52.130;5.430;2024-02-14T04:28:49;101365.50;;;9.69;100.00
71774;BME280;59607;52.130;5.430;2024-02-14T04:31:15;101373.19;;;9.71;100.00
71774;BME280;59607;52.130;5.430;2024-02-14T04:33:45;101382.69;;;9.72;100.00
71774;BME280;59607;52.130;5.430;2024-02-14T04:36:19;101376.50;;;9.73;100.00
71774;BME280;59607;52.130;5.430;2024-02-14T04:39:09;101377.19;;;9.75;100.00
71774;BME280;59607;52.130;5.430;2024-02-14T04:41:36;101381.47;;;9.76;100.00
71774;BME280;59607;52.130;5.430;2024-02-14T04:44:25;101374.41;;;9.77;100.00
71774;BME280;59607;52.130;5.430;2024-02-14T04:47:13;101379.50;;;9.78;100.00
71774;BME280;59607;52.130;5.430;2024-02-14T04:49:41;101380.34;;;9.79;100.00
71774;BME280;59607;52.130;5.430;2024-02-14T04:52:11;101388.06;;;9.80;100.00
71774;BME280;59607;52.130;5.430;2024-02-14T04:54:38;101379.34;;;9.80;100.00
71774;BME280;59607;52.130;5.430;2024-02-14T04:57:04;101392.34;;;9.81;100.00
71774;BME280;59607;52.130;5.430;2024-02-14T04:59:34;101388.59;;;9.84;100.00
71774;BME280;59607;52.130;5.430;2024-02-14T05:02:24;101392.06;;;9.84;100.00
71774;BME280;59607;52.130;5.430;2024-02-14T05:04:51;101399.78;;;9.86;100.00
71774;BME280;59607;52.130;5.430;2024-02-14T05:07:17;101377.81;;;9.87;100.00
71774;BME280;59607;52.130;5.430;2024-02-14T05:09:47;101396.03;;;9.88;100.00
71774;BME280;59607;52.130;5.430;2024-02-14T05:12:16;101397.66;;;9.90;100.00
71774;BME280;59607;52.130;5.430;2024-02-14T05:14:45;101402.91;;;9.90;100.00
71774;BME280;59607;52.130;5.430;2024-02-14T05:17:14;101401.13;;;9.90;100.00
71774;BME280;59607;52.130;5.430;2024-02-14T05:19:42;101408.16;;;9.90;100.00
71774;BME280;59607;52.130;5.430;2024-02-14T05:22:18;101407.19;;;9.91;100.00
71774;BME280;59607;52.130;5.430;2024-02-14T05:24:50;101418.47;;;9.91;100.00
71774;BME280;59607;52.130;5.430;2024-02-14T05:27:17;101408.00;;;9.91;100.00
71774;BME280;59607;52.130;5.430;2024-02-14T05:29:43;101414.06;;;9.92;100.00
71774;BME280;59607;52.130;5.430;2024-02-14T05:32:10;101418.47;;;9.91;100.00
71774;BME280;59607;52.130;5.430;2024-02-14T05:34:42;101417.69;;;9.91;100.00
71774;BME280;59607;52.130;5.430;2024-02-14T05:37:08;101419.47;;;9.90;100.00
71774;BME280;59607;52.130;5.430;2024-02-14T05:39:41;101421.25;;;9.90;100.00
71774;BME280;59607;52.130;5.430;2024-02-14T05:42:11;101422.91;;;9.91;100.00
71774;BME280;59607;52.130;5.430;2024-02-14T05:44:38;101429.94;;;9.90;100.00
71774;BME280;59607;52.130;5.430;2024-02-14T05:47:09;101425.53;;;9.91;100.00
71774;BME280;59607;52.130;5.430;2024-02-14T05:49:41;101422.09;;;9.90;100.00
71774;BME280;59607;52.130;5.430;2024-02-14T05:52:12;101422.91;;;9.91;100.00
71774;BME280;59607;52.130;5.430;2024-02-14T05:54:38;101429.09;;;9.90;100.00
71774;BME280;59607;52.130;5.430;2024-02-14T05:57:08;101422.91;;;9.91;100.00
71774;BME280;59607;52.130;5.430;2024-02-14T05:59:36;101424.69;;;9.90;100.00
71774;BME280;59607;52.130;5.430;2024-02-14T06:02:03;101428.31;;;9.89;100.00
71774;BME280;59607;52.130;5.430;2024-02-14T06:04:39;101430.09;;;9.88;100.00
71774;BME280;59607;52.130;5.430;2024-02-14T06:07:08;101437.81;;;9.90;100.00
71774;BME280;59607;52.130;5.430;2024-02-14T06:09:41;101430.91;;;9.89;100.00
71774;BME280;59607;52.130;5.430;2024-02-14T06:12:07;101430.91;;;9.89;100.00
71774;BME280;59607;52.130;5.430;2024-02-14T06:14:40;101438.78;;;9.89;100.00
71774;BME280;59607;52.130;5.430;2024-02-14T06:17:10;101450.06;;;9.90;100.00
71774;BME280;59607;52.130;5.430;2024-02-14T06:19:40;101449.78;;;9.93;100.00
71774;BME280;59607;52.130;5.430;2024-02-14T06:22:11;101453.38;;;9.92;100.00
71774;BME280;59607;52.130;5.430;2024-02-14T06:24:37;101451.44;;;9.94;100.00
71774;BME280;59607;52.130;5.430;2024-02-14T06:27:07;101450.75;;;9.92;100.00
71774;BME280;59607;52.130;5.430;2024-02-14T06:29:38;101461.09;;;9.93;100.00
71774;BME280;59607;52.130;5.430;2024-02-14T06:32:30;101462.63;;;9.96;100.00
71774;BME280;59607;52.130;5.430;2024-02-14T06:35:01;101466.34;;;9.93;100.00
71774;BME280;59607;52.130;5.430;2024-02-14T06:37:29;101462.88;;;9.93;100.00
71774;BME280;59607;52.130;5.430;2024-02-14T06:40:11;101471.59;;;9.93;100.00
71774;BME280;59607;52.130;5.430;2024-02-14T06:42:46;101472.41;;;9.94;100.00
71774;BME280;59607;52.130;5.430;2024-02-14T06:45:17;101476.97;;;9.92;100.00
71774;BME280;59607;52.130;5.430;2024-02-14T06:47:44;101477.66;;;9.94;100.00
71774;BME280;59607;52.130;5.430;2024-02-14T06:50:10;101477.66;;;9.94;100.00
71774;BME280;59607;52.130;5.430;2024-02-14T06:52:37;101476.81;;;9.93;100.00
71774;BME280;59607;52.130;5.430;2024-02-14T06:55:09;101481.09;;;9.94;100.00
71774;BME280;59607;52.130;5.430;2024-02-14T06:57:36;101484.53;;;9.95;100.00
71774;BME280;59607;52.130;5.430;2024-02-14T07:00:03;101485.38;;;9.95;100.00
71774;BME280;59607;52.130;5.430;2024-02-14T07:02:32;101486.06;;;9.97;100.00
71774;BME280;59607;52.130;5.430;2024-02-14T07:04:58;101480.00;;;9.97;100.00
71774;BME280;59607;52.130;5.430;2024-02-14T07:07:25;101478.19;;;9.97;100.00
71774;BME280;59607;52.130;5.430;2024-02-14T07:09:58;101492.81;;;10.00;100.00
71774;BME280;59607;52.130;5.430;2024-02-14T07:12:24;101486.59;;;10.01;100.00
71774;BME280;59607;52.130;5.430;2024-02-14T07:14:59;101500.53;;;10.02;100.00
71774;BME280;59607;52.130;5.430;2024-02-14T07:17:25;101499.53;;;10.03;100.00
71774;BME280;59607;52.130;5.430;2024-02-14T07:19:55;101502.16;;;10.03;100.00
71774;BME280;59607;52.130;5.430;2024-02-14T07:22:25;101495.97;;;10.04;100.00
71774;BME280;59607;52.130;5.430;2024-02-14T07:24:51;101504.50;;;10.06;100.00
71774;BME280;59607;52.130;5.430;2024-02-14T07:27:23;101501.06;;;10.05;100.00
71774;BME280;59607;52.130;5.430;2024-02-14T07:29:54;101503.56;;;10.07;100.00
71774;BME280;59607;52.130;5.430;2024-02-14T07:32:21;101504.22;;;10.09;100.00
71774;BME280;59607;52.130;5.430;2024-02-14T07:34:53;101502.44;;;10.09;100.00
71774;BME280;59607;52.130;5.430;2024-02-14T07:37:19;101496.09;;;10.12;100.00
71774;BME280;59607;52.130;5.430;2024-02-14T07:39:55;101505.59;;;10.13;100.00
71774;BME280;59607;52.130;5.430;2024-02-14T07:42:21;101494.28;;;10.12;100.00
71774;BME280;59607;52.130;5.430;2024-02-14T07:44:53;101504.47;;;10.16;100.00
71774;BME280;59607;52.130;5.430;2024-02-14T07:47:23;101501.84;;;10.16;100.00
71774;BME280;59607;52.130;5.430;2024-02-14T07:49:53;101501.84;;;10.16;100.00
71774;BME280;59607;52.130;5.430;2024-02-14T07:52:23;101506.94;;;10.17;100.00
71774;BME280;59607;52.130;5.430;2024-02-14T07:54:55;101508.63;;;10.18;100.00
71774;BME280;59607;52.130;5.430;2024-02-14T07:57:25;101513.72;;;10.20;100.00
71774;BME280;59607;52.130;5.430;2024-02-14T07:59:51;101517.00;;;10.22;100.00
71774;BME280;59607;52.130;5.430;2024-02-14T08:02:19;101518.66;;;10.23;100.00
71774;BME280;59607;52.130;5.430;2024-02-14T08:04:49;101512.44;;;10.24;100.00
71774;BME280;59607;52.130;5.430;2024-02-14T08:07:19;101513.28;;;10.24;100.00
71774;BME280;59607;52.130;5.430;2024-02-14T08:10:04;101522.78;;;10.25;100.00
71774;BME280;59607;52.130;5.430;2024-02-14T08:12:35;101523.63;;;10.26;100.00
71774;BME280;59607;52.130;5.430;2024-02-14T08:15:02;101521.84;;;10.27;100.00
71774;BME280;59607;52.130;5.430;2024-02-14T08:17:37;101527.75;;;10.29;100.00
71774;BME280;59607;52.130;5.430;2024-02-14T08:20:05;101530.22;;;10.30;100.00
71774;BME280;59607;52.130;5.430;2024-02-14T08:22:33;101531.06;;;10.31;100.00
71774;BME280;59607;52.130;5.430;2024-02-14T08:25:00;101529.94;;;10.33;100.00
71774;BME280;59607;52.130;5.430;2024-02-14T08:27:27;101526.34;;;10.34;100.00
71774;BME280;59607;52.130;5.430;2024-02-14T08:30:00;101518.34;;;10.36;100.00
71774;BME280;59607;52.130;5.430;2024-02-14T08:32:28;101529.38;;;10.40;100.00
71774;BME280;59607;52.130;5.430;2024-02-14T08:34:55;101521.38;;;10.41;100.00
71774;BME280;59607;52.130;5.430;2024-02-14T08:37:28;101523.00;;;10.42;100.00
71774;BME280;59607;52.130;5.430;2024-02-14T08:39:58;101535.97;;;10.44;100.00
71774;BME280;59607;52.130;5.430;2024-02-14T08:42:26;101526.31;;;10.44;100.00
71774;BME280;59607;52.130;5.430;2024-02-14T08:44:55;101541.81;;;10.47;100.00
71774;BME280;59607;52.130;5.430;2024-02-14T08:47:22;101532.94;;;10.48;100.00
71774;BME280;59607;52.130;5.430;2024-02-14T08:49:51;101544.28;;;10.49;100.00
71774;BME280;59607;52.130;5.430;2024-02-14T08:52:21;101540.53;;;10.52;100.00
71774;BME280;59607;52.130;5.430;2024-02-14T08:54:54;101543.00;;;10.53;100.00
71774;BME280;59607;52.130;5.430;2024-02-14T08:57:22;101530.44;;;10.57;100.00
71774;BME280;59607;52.130;5.430;2024-02-14T08:59:55;101538.84;;;10.60;100.00
71774;BME280;59607;52.130;5.430;2024-02-14T09:02:25;101545.44;;;10.65;100.00
71774;BME280;59607;52.130;5.430;2024-02-14T09:04:52;101541.72;;;10.67;100.00
71774;BME280;59607;52.130;5.430;2024-02-14T09:07:35;101544.34;;;10.67;100.00
71774;BME280;59607;52.130;5.430;2024-02-14T09:10:08;101542.66;;;10.66;100.00
71774;BME280;59607;52.130;5.430;2024-02-14T09:12:39;101557.56;;;10.66;100.00
71774;BME280;59607;52.130;5.430;2024-02-14T09:15:11;101557.56;;;10.66;100.00
71774;BME280;59607;52.130;5.430;2024-02-14T09:17:41;101551.38;;;10.67;100.00
71774;BME280;59607;52.130;5.430;2024-02-14T09:20:12;101560.09;;;10.67;100.00
71774;BME280;59607;52.130;5.430;2024-02-14T09:22:40;101555.78;;;10.66;100.00
71774;BME280;59607;52.130;5.430;2024-02-14T09:25:10;101562.03;;;10.65;100.00
71774;BME280;59607;52.130;5.430;2024-02-14T09:27:36;101568.91;;;10.66;100.00
71774;BME280;59607;52.130;5.430;2024-02-14T09:30:03;101567.25;;;10.65;100.00
71774;BME280;59607;52.130;5.430;2024-02-14T09:32:32;101581.19;;;10.66;100.00
71774;BME280;59607;52.130;5.430;2024-02-14T09:35:03;101575.00;;;10.67;100.00
71774;BME280;59607;52.130;5.430;2024-02-14T09:37:42;101571.25;;;10.69;100.00
71774;BME280;59607;52.130;5.430;2024-02-14T09:40:09;101580.50;;;10.73;100.00
71774;BME280;59607;52.130;5.430;2024-02-14T09:43:08;101575.75;;;10.77;100.00
71774;BME280;59607;52.130;5.430;2024-02-14T09:45:32;101572.97;;;10.79;100.00
71774;BME280;59607;52.130;5.430;2024-02-14T09:48:01;101561.81;;;10.77;100.00
71774;BME280;59607;52.130;5.430;2024-02-14T09:50:35;101573.97;;;10.78;100.00
71774;BME280;59607;52.130;5.430;2024-02-14T09:53:27;101566.25;;;10.76;100.00
71774;BME280;59607;52.130;5.430;2024-02-14T09:55:59;101575.25;;;10.73;100.00
71774;BME280;59607;52.130;5.430;2024-02-14T09:58:27;101575.38;;;10.72;100.00
71774;BME280;59607;52.130;5.430;2024-02-14T10:01:01;101580.78;;;10.70;100.00
71774;BME280;59607;52.130;5.430;2024-02-14T10:03:34;101578.16;;;10.70;100.00
71774;BME280;59607;52.130;5.430;2024-02-14T10:06:04;101578.97;;;10.71;100.00
71774;BME280;59607;52.130;5.430;2024-02-14T10:08:32;101582.13;;;10.74;100.00
71774;BME280;59607;52.130;5.430;2024-02-14T10:11:08;101591.66;;;10.76;100.00
71774;BME280;59607;52.130;5.430;2024-02-14T10:13:44;101587.78;;;10.80;100.00
71774;BME280;59607;52.130;5.430;2024-02-14T10:16:12;101579.75;;;10.81;100.00
71774;BME280;59607;52.130;5.430;2024-02-14T10:18:42;101585.00;;;10.81;100.00
71774;BME280;59607;52.130;5.430;2024-02-14T10:21:15;101591.75;;;10.84;100.00
71774;BME280;59607;52.130;5.430;2024-02-14T10:23:45;101577.13;;;10.81;100.00
71774;BME280;59607;52.130;5.430;2024-02-14T10:26:20;101581.25;;;10.84;100.00
71774;BME280;59607;52.130;5.430;2024-02-14T10:28:56;101588.97;;;10.85;100.00
71774;BME280;59607;52.130;5.430;2024-02-14T10:31:26;101591.31;;;10.89;100.00
71774;BME280;59607;52.130;5.430;2024-02-14T10:34:00;101590.22;;;10.91;100.00
71774;BME280;59607;52.130;5.430;2024-02-14T10:36:34;101593.50;;;10.93;100.00
71774;BME280;59607;52.130;5.430;2024-02-14T10:39:13;101591.56;;;10.95;100.00
71774;BME280;59607;52.130;5.430;2024-02-14T10:41:44;101588.63;;;10.98;100.00
71774;BME280;59607;52.130;5.430;2024-02-14T10:44:11;101600.97;;;10.98;100.00
71774;BME280;59607;52.130;5.430;2024-02-14T10:46:46;101604.25;;;11.00;100.00
71774;BME280;59607;52.130;5.430;2024-02-14T10:49:15;101602.31;;;11.02;100.00
71774;BME280;59607;52.130;5.430;2024-02-14T10:51:51;101600.22;;;11.06;100.00
71774;BME280;59607;52.130;5.430;2024-02-14T10:54:27;101593.00;;;11.08;100.00
71774;BME280;59607;52.130;5.430;2024-02-14T10:56:58;101596.00;;;11.13;100.00
71774;BME280;59607;52.130;5.430;2024-02-14T10:59:31;101602.94;;;11.14;100.00
71774;BME280;59607;52.130;5.430;2024-02-14T11:01:58;101604.56;;;11.15;100.00
71774;BME280;59607;52.130;5.430;2024-02-14T11:04:28;101600.16;;;11.16;100.00
71774;BME280;59607;52.130;5.430;2024-02-14T11:07:03;101605.13;;;11.19;100.00
71774;BME280;59607;52.130;5.430;2024-02-14T11:09:40;101597.91;;;11.21;100.00
71774;BME280;59607;52.130;5.430;2024-02-14T11:12:07;101599.13;;;11.27;100.00
71774;BME280;59607;52.130;5.430;2024-02-14T11:14:42;101589.59;;;11.26;100.00
71774;BME280;59607;52.130;5.430;2024-02-14T11:17:14;101589.59;;;11.26;100.00
71774;BME280;59607;52.130;5.430;2024-02-14T11:19:41;101591.38;;;11.25;100.00
71774;BME280;59607;52.130;5.430;2024-02-14T11:22:12;101592.88;;;11.28;100.00
71774;BME280;59607;52.130;5.430;2024-02-14T11:24:54;101588.31;;;11.30;100.00
71774;BME280;59607;52.130;5.430;2024-02-14T11:27:44;101586.53;;;11.30;100.00
71774;BME280;59607;52.130;5.430;2024-02-14T11:30:13;101572.56;;;11.30;100.00
71774;BME280;59607;52.130;5.430;2024-02-14T11:32:43;101572.56;;;11.30;100.00
71774;BME280;59607;52.130;5.430;2024-02-14T11:35:11;101575.72;;;11.33;100.00
71774;BME280;59607;52.130;5.430;2024-02-14T11:37:39;101576.81;;;11.31;100.00
71774;BME280;59607;52.130;5.430;2024-02-14T11:40:13;101575.19;;;11.30;100.00
71774;BME280;59607;52.130;5.430;2024-02-14T11:42:40;101585.84;;;11.28;100.00
71774;BME280;59607;52.130;5.430;2024-02-14T11:45:09;101581.56;;;11.27;100.00
71774;BME280;59607;52.130;5.430;2024-02-14T11:47:44;101577.97;;;11.28;100.00
71774;BME280;59607;52.130;5.430;2024-02-14T11:50:11;101584.19;;;11.27;100.00
71774;BME280;59607;52.130;5.430;2024-02-14T11:52:44;101580.59;;;11.28;100.00
71774;BME280;59607;52.130;5.430;2024-02-14T11:55:10;101576.03;;;11.30;100.00
71774;BME280;59607;52.130;5.430;2024-02-14T11:57:43;101574.19;;;11.31;100.00
71774;BME280;59607;52.130;5.430;2024-02-14T12:00:10;101572.25;;;11.33;100.00
71774;BME280;59607;52.130;5.430;2024-02-14T12:02:39;101572.63;;;11.38;100.00
71774;BME280;59607;52.130;5.430;2024-02-14T12:05:09;101566.09;;;11.42;100.00
71774;BME280;59607;52.130;5.430;2024-02-14T12:07:36;101565.16;;;11.43;100.00
71774;BME280;59607;52.130;5.430;2024-02-14T12:10:07;101567.31;;;11.48;100.00
71774;BME280;59607;52.130;5.430;2024-02-14T12:12:37;101567.16;;;11.50;100.00
71774;BME280;59607;52.130;5.430;2024-02-14T12:15:09;101574.75;;;11.53;100.00
71774;BME280;59607;52.130;5.430;2024-02-14T12:17:39;101559.13;;;11.51;100.00
71774;BME280;59607;52.130;5.430;2024-02-14T12:20:11;101556.50;;;11.51;100.00
71774;BME280;59607;52.130;5.430;2024-02-14T12:22:42;101568.81;;;11.51;100.00
71774;BME280;59607;52.130;5.430;2024-02-14T12:25:09;101567.97;;;11.50;100.00
71774;BME280;59607;52.130;5.430;2024-02-14T12:27:57;101563.56;;;11.51;100.00
71774;BME280;59607;52.130;5.430;2024-02-14T12:30:50;101572.25;;;11.51;100.00
71774;BME280;59607;52.130;5.430;2024-02-14T12:33:26;101567.16;;;11.50;100.00
71774;BME280;59607;52.130;5.430;2024-02-14T12:36:01;101567.31;;;11.48;100.00
71774;BME280;59607;52.130;5.430;2024-02-14T12:38:33;101569.09;;;11.47;100.00
71774;BME280;59607;52.130;5.430;2024-02-14T12:40:59;101562.22;;;11.46;100.00
71774;BME280;59607;52.130;5.430;2024-02-14T12:43:30;101554.97;;;11.48;100.00
71774;BME280;59607;52.130;5.430;2024-02-14T12:45:57;101555.81;;;11.49;100.00
71774;BME280;59607;52.130;5.430;2024-02-14T12:48:30;101564.38;;;11.51;100.00
71774;BME280;59607;52.130;5.430;2024-02-14T12:50:59;101563.94;;;11.56;100.00
71774;BME280;59607;52.130;5.430;2024-02-14T12:53:26;101566.72;;;11.54;100.00
71774;BME280;59607;52.130;5.430;2024-02-14T12:55:57;101564.22;;;11.53;100.00
71774;BME280;59607;52.130;5.430;2024-02-14T12:58:24;101559.94;;;11.52;100.00
71774;BME280;59607;52.130;5.430;2024-02-14T13:00:51;101572.25;;;11.51;100.00
71774;BME280;59607;52.130;5.430;2024-02-14T13:03:21;101567.81;;;11.52;100.00